createdAt,value
2023-03-22T00:01:15.780Z,97933.59
2023-03-22T00:03:42.407Z,97936.91
2023-03-22T00:06:09.958Z,97934.34
2023-03-22T00:08:36.944Z,97925.16
2023-03-22T00:11:04.223Z,97936.16
2023-03-22T00:13:33.039Z,97931.94
2023-03-22T00:16:02.776Z,97930.28
2023-03-22T00:18:30.047Z,97927.16
2023-03-22T00:20:58.936Z,97927.41
2023-03-22T00:23:26.337Z,97925.75
2023-03-22T00:25:54.949Z,97918.16
2023-03-22T00:28:22.014Z,97922.38
2023-03-22T00:30:57.604Z,97923.94
2023-03-22T00:33:24.965Z,97913.59
2023-03-22T00:35:56.689Z,97911.34
2023-03-22T00:38:29.921Z,97898.13
2023-03-22T00:41:22.901Z,97904.97
2023-03-22T00:43:50.421Z,97903.66
2023-03-22T00:46:19.226Z,97902.97
2023-03-22T00:48:45.774Z,97885.97
2023-03-22T00:51:13.448Z,97888.44
2023-03-22T00:53:43.006Z,97885.38
2023-03-22T00:56:13.829Z,97871.66
2023-03-22T00:58:40.938Z,97873.59
2023-03-22T01:01:08.052Z,97874.38
2023-03-22T01:03:35.065Z,97872.66
2023-03-22T01:06:01.936Z,97879.66
2023-03-22T01:08:33.157Z,97861.50
2023-03-22T01:11:01.273Z,97866.66
2023-03-22T01:13:28.847Z,97863.09
2023-03-22T01:15:57.731Z,97869.19
2023-03-22T01:18:24.492Z,97874.84
2023-03-22T01:20:52.352Z,97873.94
2023-03-22T01:23:18.865Z,97866.81
2023-03-22T01:25:45.363Z,97869.94
2023-03-22T01:28:11.877Z,97880.75
2023-03-22T01:30:42.109Z,97864.22
2023-03-22T01:33:10.882Z,97860.34
2023-03-22T01:35:37.786Z,97869.19
2023-03-22T01:38:04.553Z,97867.69
2023-03-22T01:40:32.783Z,97857.97
2023-03-22T01:42:59.774Z,97858.25
2023-03-22T01:45:40.840Z,97842.19
2023-03-22T01:48:14.297Z,97848.94
2023-03-22T01:50:45.758Z,97838.16
2023-03-22T01:53:15.482Z,97828.59
2023-03-22T01:55:42.503Z,97823.91
2023-03-22T01:58:09.069Z,97801.28
2023-03-22T02:00:36.843Z,97814.47
2023-03-22T02:03:05.500Z,97822.69
2023-03-22T02:05:34.530Z,97807.53
2023-03-22T02:08:01.789Z,97812.22
2023-03-22T02:10:29.871Z,97815.22
2023-03-22T02:13:38.921Z,97814.25
2023-03-22T02:16:23.466Z,97811.44
2023-03-22T02:18:56.010Z,97809.28
2023-03-22T02:21:41.219Z,97799.09
2023-03-22T02:24:39.300Z,97803.41
2023-03-22T02:27:36.803Z,97802.88
2023-03-22T02:30:41.206Z,97795.72
2023-03-22T02:33:28.078Z,97798.22
2023-03-22T02:36:07.620Z,97786.75
2023-03-22T02:39:04.506Z,97791.94
2023-03-22T02:41:47.096Z,97797.38
2023-03-22T02:44:25.539Z,97806.91
2023-03-22T02:47:08.043Z,97799.66
2023-03-22T02:49:52.103Z,97807.41
2023-03-22T02:52:51.599Z,97807.28
2023-03-22T02:55:33.609Z,97801.34
2023-03-22T02:58:18.142Z,97811.09
2023-03-22T03:00:47.014Z,97802.88
2023-03-22T03:03:18.272Z,97805.84
2023-03-22T03:05:54.949Z,97792.22
2023-03-22T03:08:23.762Z,97794.13
2023-03-22T03:10:51.543Z,97794.88
2023-03-22T03:13:19.457Z,97789.16
2023-03-22T03:15:57.423Z,97793.63
2023-03-22T03:18:36.188Z,97804.53
2023-03-22T03:21:11.396Z,97791.91
2023-03-22T03:23:49.619Z,97787.19
2023-03-22T03:26:37.294Z,97789.28
2023-03-22T03:29:15.492Z,97784.13
2023-03-22T03:32:10.521Z,97793.00
2023-03-22T03:34:39.649Z,97790.81
2023-03-22T03:37:10.495Z,97784.50
2023-03-22T03:39:43.080Z,97788.59
2023-03-22T03:42:13.629Z,97789.91
2023-03-22T03:44:40.908Z,97785.78
2023-03-22T03:47:09.283Z,97781.97
2023-03-22T03:49:36.008Z,97781.56
2023-03-22T03:52:05.116Z,97783.53
2023-03-22T03:54:32.036Z,97778.81
2023-03-22T03:56:58.646Z,97779.47
2023-03-22T03:59:25.117Z,97779.09
2023-03-22T04:01:52.573Z,97784.44
2023-03-22T04:04:26.903Z,97790.16
2023-03-22T04:07:01.459Z,97787.53
2023-03-22T04:09:33.520Z,97787.78
2023-03-22T04:12:00.276Z,97791.44
2023-03-22T04:14:27.181Z,97800.44
2023-03-22T04:16:54.979Z,97794.34
2023-03-22T04:19:22.290Z,97790.34
2023-03-22T04:21:48.965Z,97789.31
2023-03-22T04:24:15.517Z,97790.69
2023-03-22T04:26:41.942Z,97791.91
2023-03-22T04:29:08.435Z,97785.69
2023-03-22T04:31:39.095Z,97800.47
2023-03-22T04:34:06.898Z,97790.28
2023-03-22T04:36:38.760Z,97784.50
2023-03-22T04:39:08.700Z,97789.34
2023-03-22T04:41:36.026Z,97784.84
2023-03-22T04:44:03.827Z,97780.72
2023-03-22T04:46:30.982Z,97788.78
2023-03-22T04:48:57.526Z,97783.81
2023-03-22T04:51:25.249Z,97798.72
2023-03-22T04:53:52.198Z,97792.69
2023-03-22T04:56:18.965Z,97795.16
2023-03-22T04:58:45.787Z,97778.41
2023-03-22T05:01:15.344Z,97787.16
2023-03-22T05:03:43.050Z,97788.88
2023-03-22T05:06:13.317Z,97766.66
2023-03-22T05:08:41.577Z,97801.06
2023-03-22T05:11:13.503Z,97788.91
2023-03-22T05:13:40.728Z,97793.50
2023-03-22T05:16:08.175Z,97796.81
2023-03-22T05:18:37.910Z,97781.31
2023-03-22T05:21:06.690Z,97781.91
2023-03-22T05:23:33.202Z,97767.97
2023-03-22T05:26:01.603Z,97780.16
2023-03-22T05:28:28.441Z,97789.53
2023-03-22T05:30:57.099Z,97788.53
2023-03-22T05:33:23.758Z,97789.72
2023-03-22T05:35:51.169Z,97777.97
2023-03-22T05:38:18.033Z,97768.59
2023-03-22T05:40:45.179Z,97760.47
2023-03-22T05:43:12.700Z,97766.41
2023-03-22T05:45:39.597Z,97762.16
2023-03-22T05:48:06.297Z,97773.91
2023-03-22T05:50:33.217Z,97770.56
2023-03-22T05:53:00.523Z,97769.47
2023-03-22T05:55:27.581Z,97764.34
2023-03-22T05:57:54.756Z,97769.31
2023-03-22T06:00:23.738Z,97776.78
2023-03-22T06:02:52.377Z,97783.44
2023-03-22T06:05:21.034Z,97781.63
2023-03-22T06:07:47.626Z,97771.50
2023-03-22T06:10:15.470Z,97769.66
2023-03-22T06:12:42.144Z,97773.53
2023-03-22T06:15:09.481Z,97790.78
2023-03-22T06:17:36.495Z,97791.09
2023-03-22T06:20:09.372Z,97782.66
2023-03-22T06:22:35.953Z,97780.69
2023-03-22T06:25:02.750Z,97779.31
2023-03-22T06:27:29.557Z,97789.53
2023-03-22T06:29:56.087Z,97791.75
2023-03-22T06:32:26.767Z,97785.22
2023-03-22T06:34:54.774Z,97786.81
2023-03-22T06:37:22.256Z,97790.78
2023-03-22T06:39:49.092Z,97789.66
2023-03-22T06:42:15.762Z,97786.69
2023-03-22T06:44:43.979Z,97791.16
2023-03-22T06:47:11.733Z,97803.59
2023-03-22T06:49:38.638Z,97786.53
2023-03-22T06:52:05.421Z,97799.69
2023-03-22T06:54:31.865Z,97798.44
2023-03-22T06:56:58.301Z,97807.75
2023-03-22T06:59:24.737Z,97806.94
2023-03-22T07:01:51.422Z,97810.91
2023-03-22T07:04:18.114Z,97800.66
2023-03-22T07:06:44.740Z,97804.56
2023-03-22T07:09:11.421Z,97812.53
2023-03-22T07:11:37.933Z,97801.13
2023-03-22T07:14:04.461Z,97827.16
2023-03-22T07:16:30.978Z,97810.06
2023-03-22T07:18:57.522Z,97798.03
2023-03-22T07:21:24.050Z,97812.66
2023-03-22T07:23:50.599Z,97813.91
2023-03-22T07:26:17.063Z,97815.97
2023-03-22T07:28:44.697Z,97807.91
2023-03-22T07:31:15.287Z,97814.16
2023-03-22T07:33:41.917Z,97818.94
2023-03-22T07:36:09.257Z,97824.06
2023-03-22T07:38:36.065Z,97816.53
2023-03-22T07:41:02.928Z,97809.28
2023-03-22T07:43:29.493Z,97820.56
2023-03-22T07:45:56.602Z,97820.91
2023-03-22T07:48:23.710Z,97810.00
2023-03-22T07:50:55.770Z,97812.06
2023-03-22T07:53:22.274Z,97804.47
2023-03-22T07:55:48.794Z,97805.25
2023-03-22T07:58:15.241Z,97812.75
2023-03-22T08:00:44.870Z,97807.16
2023-03-22T08:03:14.688Z,97801.44
2023-03-22T08:05:43.612Z,97807.44
2023-03-22T08:08:13.655Z,97808.16
2023-03-22T08:10:41.885Z,97805.03
2023-03-22T08:13:08.508Z,97805.63
2023-03-22T08:15:37.652Z,97786.03
2023-03-22T08:18:04.349Z,97793.53
2023-03-22T08:20:30.876Z,97798.09
2023-03-22T08:22:57.554Z,97790.13
2023-03-22T08:25:24.625Z,97784.25
2023-03-22T08:27:51.645Z,97784.72
2023-03-22T08:30:18.488Z,97763.50
2023-03-22T08:32:45.573Z,97788.72
2023-03-22T08:35:13.128Z,97791.81
2023-03-22T08:37:42.496Z,97754.41
2023-03-22T08:40:12.600Z,97784.41
2023-03-22T08:42:41.954Z,97774.47
2023-03-22T08:45:13.391Z,97764.22
2023-03-22T08:47:42.991Z,97773.88
2023-03-22T08:50:15.136Z,97778.03
2023-03-22T08:52:44.940Z,97779.16
2023-03-22T08:55:17.436Z,97784.34
2023-03-22T08:57:50.304Z,97759.16
2023-03-22T09:00:25.626Z,97768.66
2023-03-22T09:02:52.234Z,97781.22
2023-03-22T09:05:18.942Z,97778.38
2023-03-22T09:07:45.778Z,97767.25
2023-03-22T09:10:16.944Z,97770.81
2023-03-22T09:12:43.476Z,97768.88
2023-03-22T09:15:14.797Z,97766.25
2023-03-22T09:17:45.756Z,97776.09
2023-03-22T09:20:15.422Z,97767.66
2023-03-22T09:22:44.694Z,97764.63
2023-03-22T09:25:14.744Z,97773.44
2023-03-22T09:27:44.553Z,97767.56
2023-03-22T09:30:13.873Z,97771.06
2023-03-22T09:32:43.024Z,97767.41
2023-03-22T09:35:11.711Z,97767.00
2023-03-22T09:37:38.936Z,97755.84
2023-03-22T09:40:07.378Z,97761.88
2023-03-22T09:42:38.589Z,97760.59
2023-03-22T09:45:12.842Z,97751.13
2023-03-22T09:47:54.789Z,97747.50
2023-03-22T09:50:25.011Z,97744.78
2023-03-22T09:52:52.814Z,97752.09
2023-03-22T09:55:25.788Z,97752.91
2023-03-22T09:58:07.666Z,97753.06
2023-03-22T10:01:02.920Z,97753.63
2023-03-22T10:04:03.176Z,97747.66
2023-03-22T10:06:31.037Z,97733.72
2023-03-22T10:09:14.513Z,97738.28
2023-03-22T10:11:52.486Z,97735.50
2023-03-22T10:14:31.088Z,97732.06
2023-03-22T10:17:03.790Z,97732.22
2023-03-22T10:19:35.664Z,97722.25
2023-03-22T10:22:04.357Z,97721.53
2023-03-22T10:24:36.573Z,97731.44
2023-03-22T10:27:06.818Z,97719.38
2023-03-22T10:29:42.030Z,97719.78
2023-03-22T10:32:17.392Z,97713.47
2023-03-22T10:34:44.528Z,97712.66
2023-03-22T10:37:20.531Z,97704.50
2023-03-22T10:39:52.383Z,97702.78
2023-03-22T10:42:29.970Z,97708.22
2023-03-22T10:45:01.968Z,97705.72
2023-03-22T10:47:40.625Z,97694.66
2023-03-22T10:50:36.605Z,97687.63
2023-03-22T10:53:15.206Z,97690.63
2023-03-22T10:55:44.852Z,97684.84
2023-03-22T10:58:22.584Z,97683.31
2023-03-22T11:00:54.322Z,97681.09
2023-03-22T11:03:37.584Z,97680.47
2023-03-22T11:06:13.393Z,97675.16
2023-03-22T11:08:47.828Z,97669.13
2023-03-22T11:11:24.969Z,97665.84
2023-03-22T11:13:55.692Z,97668.09
2023-03-22T11:16:23.745Z,97667.63
2023-03-22T11:18:51.137Z,97667.19
2023-03-22T11:21:21.335Z,97669.97
2023-03-22T11:23:57.642Z,97659.56
2023-03-22T11:26:31.616Z,97646.06
2023-03-22T11:29:21.569Z,97648.22
2023-03-22T11:31:57.441Z,97654.19
2023-03-22T11:34:29.916Z,97639.91
2023-03-22T11:37:00.436Z,97641.78
2023-03-22T11:39:29.429Z,97639.38
2023-03-22T11:42:06.309Z,97648.41
2023-03-22T11:44:35.516Z,97636.94
2023-03-22T11:47:04.235Z,97651.06
2023-03-22T11:49:40.407Z,97640.28
2023-03-22T11:52:10.213Z,97645.81
2023-03-22T11:54:39.107Z,97648.94
2023-03-22T11:57:16.222Z,97632.97
2023-03-22T12:00:11.347Z,97622.47
2023-03-22T12:02:47.314Z,97609.28
2023-03-22T12:05:16.354Z,97608.41
2023-03-22T12:07:43.401Z,97603.13
2023-03-22T12:10:16.941Z,97603.72
2023-03-22T12:12:51.457Z,97597.25
2023-03-22T12:15:22.333Z,97584.03
2023-03-22T12:18:12.611Z,97596.50
2023-03-22T12:20:58.300Z,97584.84
2023-03-22T12:23:30.669Z,97575.63
2023-03-22T12:26:12.440Z,97578.44
2023-03-22T12:28:47.484Z,97582.47
2023-03-22T12:31:24.219Z,97565.13
2023-03-22T12:33:54.845Z,97574.63
2023-03-22T12:36:28.174Z,97569.97
2023-03-22T12:38:57.397Z,97566.13
2023-03-22T12:41:34.576Z,97562.16
2023-03-22T12:44:10.674Z,97566.66
2023-03-22T12:46:53.610Z,97559.59
2023-03-22T12:49:46.904Z,97561.28
2023-03-22T12:52:18.962Z,97539.56
2023-03-22T12:54:51.104Z,97547.72
2023-03-22T12:57:18.668Z,97542.84
2023-03-22T12:59:52.976Z,97536.06
2023-03-22T13:02:27.581Z,97532.34
2023-03-22T13:04:57.321Z,97529.34
2023-03-22T13:07:39.128Z,97517.59
2023-03-22T13:10:36.306Z,97518.09
2023-03-22T13:13:38.503Z,97519.53
2023-03-22T13:16:11.098Z,97509.19
2023-03-22T13:18:58.285Z,97500.88
2023-03-22T13:21:27.476Z,97501.19
2023-03-22T13:24:00.512Z,97500.63
2023-03-22T13:26:46.041Z,97497.94
2023-03-22T13:29:25.235Z,97485.19
2023-03-22T13:31:51.796Z,97494.94
2023-03-22T13:34:36.206Z,97479.22
2023-03-22T13:37:05.304Z,97490.59
2023-03-22T13:39:34.676Z,97471.91
2023-03-22T13:42:37.967Z,97473.81
2023-03-22T13:45:09.922Z,97477.06
2023-03-22T13:47:43.902Z,97474.63
2023-03-22T13:50:32.285Z,97472.47
2023-03-22T13:53:05.056Z,97474.63
2023-03-22T13:55:58.477Z,97471.66
2023-03-22T13:58:36.259Z,97468.38
2023-03-22T14:01:13.569Z,97462.13
2023-03-22T14:03:45.755Z,97450.72
2023-03-22T14:06:25.578Z,97456.16
2023-03-22T14:08:58.703Z,97454.28
2023-03-22T14:11:46.037Z,97447.00
2023-03-22T14:14:27.240Z,97442.69
2023-03-22T14:17:20.313Z,97452.97
2023-03-22T14:19:50.258Z,97454.84
